Time;durP1;ratioP1;P1;durP2;ratioP2;P2;SDS_P1;SDS_P2;PMS_P1;PMS_P2;Temp;Humidity;BMP_temperature;BMP_pressure;BME280_temperature;BME280_humidity;BME280_pressure;Samples;Min_cycle;Max_cycle;Signal;HPM_P1;HPM_P2
2023/01/04 00:00:20;;;;;;;19.55;9.23;;;;;;;6.10;73.20;101934.48;1755052;82;21532;-59
2023/01/04 00:02:48;;;;;;;25.72;10.65;;;;;;;6.14;73.35;101928.36;1751560;81;21050;-58
2023/01/04 00:05:17;;;;;;;22.82;10.23;;;;;;;6.17;73.38;101930.55;1749536;82;21086;-50
2023/01/04 00:07:46;;;;;;;27.00;9.40;;;;;;;6.19;73.47;101927.92;1749491;82;21137;-51
2023/01/04 00:10:14;;;;;;;24.25;10.68;;;;;;;6.24;73.47;101925.32;1749595;82;21592;-48
2023/01/04 00:12:43;;;;;;;19.37;9.20;;;;;;;6.30;73.49;101924.84;1751901;81;21116;-52
2023/01/04 00:15:12;;;;;;;22.52;9.65;;;;;;;6.35;73.44;101931.39;1755290;82;21131;-51
2023/01/04 00:17:40;;;;;;;19.57;9.83;;;;;;;6.41;73.33;101923.97;1755175;82;21056;-52
2023/01/04 00:20:10;;;;;;;19.32;10.35;;;;;;;6.37;73.47;101927.89;1754883;82;21221;-51
2023/01/04 00:22:39;;;;;;;21.93;9.65;;;;;;;6.40;73.41;101924.41;1749543;82;21117;-53
2023/01/04 00:25:08;;;;;;;16.25;8.50;;;;;;;6.41;73.18;101922.66;1749560;82;21106;-52
2023/01/04 00:27:36;;;;;;;17.77;9.68;;;;;;;6.36;73.04;101924.86;1749656;82;21576;-52
2023/01/04 00:30:06;;;;;;;19.27;8.98;;;;;;;6.35;73.19;101923.55;1750686;82;21155;-50
2023/01/04 00:32:36;;;;;;;18.70;9.58;;;;;;;6.36;73.20;101917.42;1755257;82;21087;-53
2023/01/04 00:35:05;;;;;;;18.40;8.65;;;;;;;6.41;73.07;101921.35;1755202;82;21052;-53
2023/01/04 00:37:34;;;;;;;23.92;9.98;;;;;;;6.42;73.31;101921.35;1755991;81;21133;-54
2023/01/04 00:40:03;;;;;;;20.35;10.35;;;;;;;6.44;73.20;101925.28;1812738;78;21180;-56
2023/01/04 00:42:32;;;;;;;22.30;10.90;;;;;;;6.44;73.00;101931.37;1815246;79;21200;-54
2023/01/04 00:45:00;;;;;;;20.72;10.03;;;;;;;6.41;72.99;101920.91;1807892;79;21050;-53
2023/01/04 00:47:29;;;;;;;19.15;10.13;;;;;;;6.35;73.09;101913.95;1802064;79;21165;-55
2023/01/04 00:49:58;;;;;;;21.33;10.60;;;;;;;6.32;73.04;101909.16;1789294;80;21133;-55
2023/01/04 00:52:27;;;;;;;24.52;10.70;;;;;;;6.29;73.65;101909.16;1789110;80;21161;-53
2023/01/04 00:54:56;;;;;;;24.25;10.60;;;;;;;6.29;73.89;101907.84;1800811;79;21066;-54
2023/01/04 00:57:24;;;;;;;26.20;11.28;;;;;;;6.31;73.98;101910.91;1818135;79;21114;-52
2023/01/04 00:59:53;;;;;;;20.72;10.10;;;;;;;6.40;74.03;101907.41;1826559;77;21055;-48
2023/01/04 01:02:22;;;;;;;17.17;8.30;;;;;;;6.49;73.93;101903.45;1818954;79;21200;-50
2023/01/04 01:04:51;;;;;;;21.85;11.00;;;;;;;6.59;73.65;101906.03;1818784;79;21603;-49
2023/01/04 01:07:19;;;;;;;22.80;9.95;;;;;;;6.65;73.43;101898.15;1818894;79;21082;-53
2023/01/04 01:09:48;;;;;;;22.77;9.85;;;;;;;6.69;73.27;101886.78;1818886;79;21144;-56
2023/01/04 01:12:17;;;;;;;20.57;9.58;;;;;;;6.71;73.08;101882.41;1818798;79;21115;-56
2023/01/04 01:14:46;;;;;;;18.82;9.95;;;;;;;6.65;73.17;101886.37;1818795;79;21082;-56
2023/01/04 01:17:15;;;;;;;23.20;10.43;;;;;;;6.66;73.18;101888.09;1818822;79;21145;-58
2023/01/04 01:19:43;;;;;;;21.25;10.43;;;;;;;6.66;73.31;101886.78;1818757;79;21136;-49
2023/01/04 01:22:12;;;;;;;21.23;10.63;;;;;;;6.69;73.35;101886.78;1818751;79;21290;-47
2023/01/04 01:24:41;;;;;;;24.15;10.40;;;;;;;6.73;73.38;101881.95;1818780;79;21062;-52
2023/01/04 01:27:09;;;;;;;22.50;10.75;;;;;;;6.80;73.31;101884.12;1818881;79;21572;-53
2023/01/04 01:29:38;;;;;;;22.10;10.65;;;;;;;6.85;73.24;101881.91;1818595;79;21062;-48
2023/01/04 01:32:06;;;;;;;23.40;11.15;;;;;;;6.90;73.21;101877.97;1810887;79;21121;-56
2023/01/04 01:34:35;;;;;;;25.23;10.78;;;;;;;6.94;73.29;101871.38;1818916;79;21128;-53
2023/01/04 01:37:04;;;;;;;25.37;12.23;;;;;;;6.98;73.25;101861.76;1818796;79;21097;-51
2023/01/04 01:39:33;;;;;;;24.00;10.43;;;;;;;7.03;73.36;101861.75;1819914;77;21549;-53
2023/01/04 01:42:02;;;;;;;22.02;10.75;;;;;;;7.06;73.31;101866.49;1823433;77;21122;-51
2023/01/04 01:44:45;;;;;;;17.92;9.03;;;;;;;7.05;73.46;101859.53;1818780;79;21026;-56
2023/01/04 01:47:17;;;;;;;22.40;11.00;;;;;;;7.03;73.56;101855.20;1822762;77;21215;-56
2023/01/04 01:49:48;;;;;;;25.37;11.25;;;;;;;7.04;73.51;101855.61;1842686;77;21594;-45
2023/01/04 01:52:20;;;;;;;24.15;10.90;;;;;;;7.03;73.54;101852.58;1855124;77;21526;-51
2023/01/04 01:54:54;;;;;;;23.38;10.93;;;;;;;7.09;73.47;101858.62;1817468;79;21063;-57
2023/01/04 01:57:29;;;;;;;25.85;11.25;;;;;;;7.14;73.51;101853.38;1829437;77;21106;-58
2023/01/04 02:00:01;;;;;;;22.40;10.75;;;;;;;7.19;73.45;101851.56;1835865;77;21066;-57
2023/01/04 02:02:31;;;;;;;22.65;11.55;;;;;;;7.24;73.35;101845.00;1823596;77;21474;-57
2023/01/04 02:05:02;;;;;;;27.85;13.38;;;;;;;7.23;73.36;101846.76;1820215;77;21118;-56
2023/01/04 02:07:31;;;;;;;24.12;11.45;;;;;;;7.25;73.32;101848.92;1818695;79;21172;-56
2023/01/04 02:10:00;;;;;;;30.48;12.60;;;;;;;7.27;73.31;101843.23;1815485;79;21504;-56
2023/01/04 02:12:29;;;;;;;29.50;12.63;;;;;;;7.25;73.37;101848.92;1818887;79;21622;-57
2023/01/04 02:14:58;;;;;;;22.32;11.60;;;;;;;7.23;73.43;101851.11;1841974;77;21019;-57
2023/01/04 02:17:46;;;;;;;25.08;11.78;;;;;;;7.21;73.51;101844.59;1819538;77;21185;-56
2023/01/04 02:20:24;;;;;;;23.42;12.07;;;;;;;7.15;73.57;101844.62;1818283;79;21724;-53
2023/01/04 02:23:11;;;;;;;26.20;13.00;;;;;;;7.04;73.89;101845.13;1806393;77;21127;-57
2023/01/04 02:26:15;;;;;;;29.80;12.65;;;;;;;7.03;74.09;101843.41;1849202;77;21029;-56
2023/01/04 02:29:09;;;;;;;27.67;12.05;;;;;;;7.03;73.93;101838.17;1827930;77;21497;-56
2023/01/04 02:31:47;;;;;;;27.30;12.80;;;;;;;7.05;73.74;101842.96;1813984;79;21134;-58
2023/01/04 02:34:30;;;;;;;21.65;10.82;;;;;;;7.09;73.70;101842.05;1838704;77;21126;-56
2023/01/04 02:37:05;;;;;;;20.45;10.15;;;;;;;7.13;73.63;101841.14;1849360;77;21083;-56
2023/01/04 02:40:08;;;;;;;23.32;11.25;;;;;;;7.15;73.49;101832.83;1845961;77;21244;-57
2023/01/04 02:45:38;;;;;;;25.97;11.63;;;;;;;7.21;73.42;101831.91;1864681;77;21052;-55
2023/01/04 02:51:00;;;;;;;29.20;11.00;;;;;;;7.21;73.74;101836.73;1839574;75;21099;-56
2023/01/04 02:53:34;;;;;;;28.90;11.93;;;;;;;7.24;73.86;101832.77;1831936;78;21221;-56
2023/01/04 02:56:34;;;;;;;24.32;11.25;;;;;;;7.31;73.90;101843.63;1841186;77;21075;-56
2023/01/04 02:59:13;;;;;;;21.10;10.80;;;;;;;7.35;73.97;101840.09;1830641;78;21035;-56
2023/01/04 03:07:40;;;;;;;28.05;12.10;;;;;;;7.47;73.48;101834.31;1749671;79;21116;-56
2023/01/04 03:10:12;;;;;;;23.30;10.15;;;;;;;7.45;73.39;101840.02;1786508;80;21153;-56
2023/01/04 03:12:43;;;;;;;26.23;11.60;;;;;;;7.44;73.33;101839.16;1786553;79;21071;-56
2023/01/04 03:15:18;;;;;;;21.07;10.05;;;;;;;7.44;73.36;101835.67;1784467;79;21068;-57
2023/01/04 03:17:52;;;;;;;23.25;11.55;;;;;;;7.40;73.47;101838.77;1816782;79;21489;-56
2023/01/04 03:20:22;;;;;;;24.47;10.35;;;;;;;7.38;73.73;101837.91;1850599;77;21055;-56
2023/01/04 03:37:25;;;;;;;20.35;10.08;;;;;;;7.45;73.65;101841.33;1850460;77;21187;-56
2023/01/04 03:48:58;;;;;;;25.30;10.78;;;;;;;7.53;73.42;101827.73;1860038;76;21568;-55
2023/01/04 03:51:30;;;;;;;22.10;10.55;;;;;;;7.55;73.35;101831.20;1851189;76;21055;-56
2023/01/04 03:54:04;;;;;;;28.70;10.80;;;;;;;7.56;73.31;101832.92;1851018;77;21165;-56
2023/01/04 03:56:35;;;;;;;23.55;12.07;;;;;;;7.57;73.37;101826.81;1851118;76;21078;-57
2023/01/04 03:59:05;;;;;;;23.10;10.58;;;;;;;7.58;73.41;101825.95;1851624;77;21055;-54
2023/01/04 04:01:34;;;;;;;26.40;10.88;;;;;;;7.61;73.44;101827.20;1851587;77;21543;-55
2023/01/04 04:09:36;;;;;;;22.55;10.30;;;;;;;7.69;73.52;101827.13;1821069;79;21042;-55
2023/01/04 04:12:05;;;;;;;16.07;8.58;;;;;;;7.71;73.48;101828.88;1821255;79;21570;-55
2023/01/04 04:14:34;;;;;;;23.80;9.58;;;;;;;7.73;73.48;101829.72;1821205;79;21042;-55
2023/01/04 04:17:03;;;;;;;20.80;10.38;;;;;;;7.72;73.55;101818.80;1821222;79;21049;-57
2023/01/04 04:19:31;;;;;;;18.57;8.95;;;;;;;7.69;73.73;101820.58;1846554;76;21046;-57
2023/01/04 04:22:00;;;;;;;22.52;10.00;;;;;;;7.71;73.71;101823.63;1851500;77;21050;-57
2023/01/04 04:24:29;;;;;;;25.37;10.58;;;;;;;7.74;73.60;101829.27;1851625;77;21079;-57
2023/01/04 04:26:57;;;;;;;23.67;10.50;;;;;;;7.72;73.46;101825.34;1851553;77;21058;-56
2023/01/04 04:29:26;;;;;;;20.72;10.08;;;;;;;7.65;73.48;101815.80;1851342;77;21144;-56
2023/01/04 04:31:55;;;;;;;24.60;10.25;;;;;;;7.62;73.53;101827.64;1851596;77;21030;-56
2023/01/04 04:34:23;;;;;;;22.80;10.50;;;;;;;7.60;73.52;101824.17;1851494;77;21102;-55
2023/01/04 04:36:52;;;;;;;22.40;9.68;;;;;;;7.58;73.55;101830.30;1851506;76;21054;-57
2023/01/04 04:39:21;;;;;;;24.40;10.45;;;;;;;7.54;73.74;101829.45;1851476;77;21078;-57
2023/01/04 04:41:49;;;;;;;18.95;10.30;;;;;;;7.55;73.87;101833.83;1846950;77;21168;-57
2023/01/04 04:44:20;;;;;;;27.22;9.80;;;;;;;7.57;74.04;101837.30;1843520;78;21146;-57
2023/01/04 04:46:49;;;;;;;22.98;10.10;;;;;;;7.58;74.12;101839.05;1843535;78;21133;-56
2023/01/04 04:49:18;;;;;;;27.42;11.70;;;;;;;7.60;74.17;101839.91;1843453;77;21640;-56
2023/01/04 04:51:47;;;;;;;25.68;9.88;;;;;;;7.62;74.14;101836.82;1843579;78;21078;-55
2023/01/04 04:54:18;;;;;;;22.93;10.35;;;;;;;7.65;74.06;101834.60;1843243;78;21120;-58
2023/01/04 04:56:48;;;;;;;28.87;11.97;;;;;;;7.67;73.96;101837.66;1842923;76;21087;-56
2023/01/04 04:59:17;;;;;;;25.43;10.63;;;;;;;7.67;73.85;101831.10;1843530;78;21082;-55
2023/01/04 05:01:46;;;;;;;29.05;11.65;;;;;;;7.66;73.81;101835.91;1843491;78;21046;-56
2023/01/04 05:04:20;;;;;;;28.87;11.85;;;;;;;7.66;73.80;101835.91;1842419;77;21051;-57
2023/01/04 05:06:46;;;;;;;32.00;11.90;;;;;;;7.68;73.79;101837.20;1841083;78;21125;-57
2023/01/04 05:09:16;;;;;;;27.27;11.33;;;;;;;7.67;73.90;101831.10;1843649;78;21098;-56
2023/01/04 05:14:31;;;;;;;21.60;11.15;;;;;;;7.68;74.21;101828.89;1843420;77;21055;-56
2023/01/04 05:17:00;;;;;;;26.25;10.78;;;;;;;7.68;74.23;101826.27;1843548;78;21043;-56
2023/01/04 05:19:29;;;;;;;26.80;11.45;;;;;;;7.68;74.34;101828.03;1843490;78;21581;-56
2023/01/04 05:21:57;;;;;;;27.00;12.07;;;;;;;7.66;74.45;101828.04;1843576;77;21466;-56
2023/01/04 05:24:26;;;;;;;25.57;11.53;;;;;;;7.65;74.44;101827.59;1843395;78;21062;-56
2023/01/04 05:26:55;;;;;;;36.60;10.95;;;;;;;7.64;74.41;101828.50;1843529;78;21019;-57
2023/01/04 05:32:10;;;;;;;23.00;11.10;;;;;;;7.70;74.21;101829.73;1842837;78;21043;-57
2023/01/04 05:34:39;;;;;;;22.80;10.78;;;;;;;7.71;74.26;101834.56;1840733;78;21153;-58
2023/01/04 05:37:07;;;;;;;24.63;11.00;;;;;;;7.74;74.29;101832.75;1843501;78;21126;-58
2023/01/04 05:39:36;;;;;;;29.00;12.28;;;;;;;7.79;74.37;101830.10;1843582;78;21579;-54
2023/01/04 05:44:56;;;;;;;27.90;12.07;;;;;;;7.92;74.61;101836.09;1857044;77;21136;-57
2023/01/04 05:47:26;;;;;;;31.68;11.90;;;;;;;8.03;74.33;101836.84;1826436;78;21033;-56
2023/01/04 05:49:54;;;;;;;30.57;12.53;;;;;;;8.11;74.13;101842.00;1826318;78;21571;-56
2023/01/04 05:52:23;;;;;;;29.55;11.48;;;;;;;8.17;74.10;101839.33;1826217;78;21050;-58
2023/01/04 05:54:52;;;;;;;28.92;12.63;;;;;;;8.22;74.14;101841.88;1826263;78;21184;-58
2023/01/04 05:57:26;;;;;;;25.65;12.70;;;;;;;8.71;73.92;101836.50;1851566;77;21038;-58
2023/01/04 05:59:51;;;;;;;25.23;11.33;;;;;;;9.24;73.01;101835.70;1856526;77;21078;-55
2023/01/04 06:02:23;;;;;;;30.70;13.13;;;;;;;9.63;72.15;101838.55;1857205;77;21050;-55
2023/01/04 06:04:52;;;;;;;26.52;12.55;;;;;;;9.84;71.61;101848.27;1857197;77;21132;-56
2023/01/04 06:07:21;;;;;;;23.98;10.68;;;;;;;9.97;71.34;101847.59;1857071;77;21219;-56
2023/01/04 06:09:49;;;;;;;24.82;11.00;;;;;;;10.11;71.16;101846.88;1857248;77;21026;-55
2023/01/04 06:12:18;;;;;;;21.27;9.90;;;;;;;10.16;71.15;101848.09;1857158;77;21023;-50
2023/01/04 06:14:46;;;;;;;22.80;9.80;;;;;;;10.04;71.15;101851.39;1857191;77;21543;-51
2023/01/04 06:17:15;;;;;;;26.02;9.55;;;;;;;9.80;71.14;101850.08;1856995;76;21132;-49
2023/01/04 06:19:44;;;;;;;21.90;9.83;;;;;;;9.56;71.42;101854.47;1857074;77;21026;-51
2023/01/04 06:22:13;;;;;;;19.67;9.13;;;;;;;9.28;71.92;101856.23;1857179;77;21127;-51
2023/01/04 06:24:42;;;;;;;23.95;10.08;;;;;;;9.13;72.30;101866.54;1857110;77;21465;-48
2023/01/04 06:27:11;;;;;;;29.35;10.68;;;;;;;8.86;72.75;101874.36;1857185;77;21054;-51
2023/01/04 06:29:39;;;;;;;27.73;10.50;;;;;;;8.69;73.16;101882.47;1857164;77;21046;-48
2023/01/04 06:32:08;;;;;;;33.33;11.78;;;;;;;8.55;73.42;101880.45;1855983;77;21584;-50
2023/01/04 06:34:37;;;;;;;44.23;12.13;;;;;;;8.41;73.68;101877.53;1857014;77;21089;-55
2023/01/04 06:37:05;;;;;;;32.53;10.35;;;;;;;8.30;73.96;101878.96;1861192;76;21070;-55
2023/01/04 06:39:34;;;;;;;38.85;12.30;;;;;;;8.23;73.96;101890.41;1841093;76;21027;-55
2023/01/04 06:42:03;;;;;;;48.98;12.25;;;;;;;8.20;74.00;101890.87;1857178;77;21136;-56
2023/01/04 06:44:35;;;;;;;36.13;12.23;;;;;;;8.18;73.95;101898.77;1857057;77;21066;-55
2023/01/04 06:47:04;;;;;;;38.67;12.10;;;;;;;8.10;74.12;101904.09;1855937;77;21046;-56
2023/01/04 06:49:33;;;;;;;42.38;12.70;;;;;;;8.08;74.35;101895.38;1857233;77;21074;-55
2023/01/04 06:52:01;;;;;;;38.23;13.25;;;;;;;8.03;74.59;101895.86;1857180;77;21120;-55
2023/01/04 06:54:32;;;;;;;42.38;13.78;;;;;;;8.03;74.87;101891.06;1857155;77;21050;-55
2023/01/04 06:57:00;;;;;;;43.75;13.53;;;;;;;8.08;75.05;101887.50;1856878;77;21124;-55
2023/01/04 06:59:29;;;;;;;39.38;12.47;;;;;;;8.15;75.12;101888.30;1857030;77;21195;-55
2023/01/04 07:01:57;;;;;;;38.73;12.80;;;;;;;8.24;75.05;101887.33;1857062;77;21050;-55
2023/01/04 07:04:26;;;;;;;35.68;11.12;;;;;;;8.33;75.13;101896.41;1856989;77;21111;-56
2023/01/04 07:06:56;;;;;;;39.65;11.70;;;;;;;8.46;75.02;101898.48;1856320;77;21124;-54
2023/01/04 07:09:25;;;;;;;34.38;12.63;;;;;;;8.61;74.68;101894.81;1857019;76;21133;-53
2023/01/04 07:11:54;;;;;;;38.05;12.53;;;;;;;8.67;74.46;101889.05;1857072;76;21030;-53
2023/01/04 07:14:22;;;;;;;37.88;12.93;;;;;;;8.71;74.40;101883.31;1857167;77;21097;-52
2023/01/04 07:16:51;;;;;;;40.70;14.40;;;;;;;8.73;74.45;101890.73;1856936;76;21066;-52
2023/01/04 07:19:20;;;;;;;32.48;11.40;;;;;;;8.70;74.62;101894.70;1857065;77;21052;-52
2023/01/04 07:21:48;;;;;;;35.20;12.40;;;;;;;8.72;74.67;101890.29;1857121;77;21082;-54
2023/01/04 07:24:17;;;;;;;31.70;10.68;;;;;;;8.74;74.69;101883.25;1857082;77;21050;-53
2023/01/04 07:26:46;;;;;;;32.60;12.23;;;;;;;8.75;74.75;101880.20;1857222;77;21081;-54
2023/01/04 07:29:15;;;;;;;35.70;13.50;;;;;;;8.74;74.73;101879.77;1857159;77;21167;-53
2023/01/04 07:31:49;;;;;;;39.18;14.25;;;;;;;8.71;74.92;101879.83;1857246;77;21125;-53
2023/01/04 07:34:21;;;;;;;36.73;12.78;;;;;;;8.70;75.19;101881.56;1856524;76;21524;-54
2023/01/04 07:36:50;;;;;;;35.55;12.43;;;;;;;8.76;75.24;101877.56;1857355;76;21233;-55
2023/01/04 07:39:20;;;;;;;33.65;12.73;;;;;;;8.97;75.08;101880.78;1859353;76;21136;-54
2023/01/04 07:41:49;;;;;;;33.85;11.53;;;;;;;9.23;74.84;101882.57;1857446;76;21485;-55
2023/01/04 07:44:25;;;;;;;34.10;12.03;;;;;;;9.47;74.47;101877.83;1857102;76;21552;-52
2023/01/04 07:46:50;;;;;;;31.17;12.20;;;;;;;9.65;74.03;101872.27;1856492;77;21066;-56
2023/01/04 07:49:23;;;;;;;32.80;11.70;;;;;;;9.87;73.65;101873.21;1866224;76;20996;-57
2023/01/04 07:51:52;;;;;;;30.30;12.05;;;;;;;10.33;72.99;101869.73;1872067;76;21039;-60
2023/01/04 07:54:23;;;;;;;29.48;11.88;;;;;;;11.65;71.09;101868.95;1865951;76;21165;-60
2023/01/04 07:56:53;;;;;;;27.00;10.70;;;;;;;13.18;68.46;101858.42;1845719;77;21136;-59
2023/01/04 07:59:24;;;;;;;31.35;10.60;;;;;;;14.67;66.17;101857.69;1825054;78;21160;-60
2023/01/04 08:01:53;;;;;;;27.48;11.43;;;;;;;15.74;63.43;101860.45;1826258;78;21050;-57
2023/01/04 08:04:24;;;;;;;28.20;12.13;;;;;;;15.48;62.78;101862.86;1826345;78;21066;-58
2023/01/04 08:06:53;;;;;;;29.92;10.63;;;;;;;14.95;63.08;101861.92;1840357;77;21070;-59
2023/01/04 08:09:22;;;;;;;30.52;12.58;;;;;;;15.02;63.22;101860.28;1857289;77;21537;-59
2023/01/04 08:11:50;;;;;;;29.32;12.50;;;;;;;15.30;62.58;101864.47;1857383;77;21124;-57
2023/01/04 08:14:19;;;;;;;27.52;12.13;;;;;;;14.94;62.95;101861.06;1857214;76;21046;-57
2023/01/04 08:16:47;;;;;;;29.27;13.50;;;;;;;15.06;62.83;101859.23;1857193;77;21517;-57
2023/01/04 08:19:21;;;;;;;26.27;10.70;;;;;;;14.85;63.33;101858.77;1857221;77;21614;-57
2023/01/04 08:21:49;;;;;;;31.20;10.72;;;;;;;14.38;63.88;101854.31;1857360;77;21555;-57
2023/01/04 08:24:19;;;;;;;28.65;11.65;;;;;;;13.95;64.51;101857.20;1857186;77;21030;-57
2023/01/04 08:26:52;;;;;;;26.17;10.63;;;;;;;13.71;64.92;101857.60;1857073;77;21457;-57
2023/01/04 08:29:32;;;;;;;27.40;11.10;;;;;;;13.29;65.58;101852.33;1856781;76;21137;-58
2023/01/04 08:32:01;;;;;;;30.47;12.73;;;;;;;12.86;66.28;101848.88;1856652;76;21038;-59
2023/01/04 08:34:31;;;;;;;26.07;11.35;;;;;;;12.34;66.89;101849.52;1855428;77;21094;-58
2023/01/04 08:37:00;;;;;;;26.70;11.97;;;;;;;12.02;67.50;101846.44;1855446;77;21518;-59
2023/01/04 08:39:38;;;;;;;30.60;12.53;;;;;;;11.87;67.56;101845.05;1856158;77;21050;-57
2023/01/04 08:42:07;;;;;;;29.30;11.73;;;;;;;11.79;67.50;101839.12;1857173;77;21121;-57
2023/01/04 08:44:36;;;;;;;27.22;11.55;;;;;;;11.66;67.40;101841.22;1854876;77;21091;-57
2023/01/04 08:47:06;;;;;;;29.05;11.68;;;;;;;11.48;67.60;101842.55;1850708;76;21416;-58
2023/01/04 08:49:35;;;;;;;33.88;13.40;;;;;;;11.32;67.77;101843.83;1852026;76;21505;-57
2023/01/04 08:52:04;;;;;;;34.13;13.13;;;;;;;11.15;68.08;101842.92;1851758;76;21117;-58
2023/01/04 08:54:37;;;;;;;35.48;14.55;;;;;;;11.01;68.26;101843.23;1851822;76;21120;-57
2023/01/04 08:57:06;;;;;;;37.88;15.43;;;;;;;10.86;68.48;101840.96;1850745;77;21493;-58
2023/01/04 08:59:34;;;;;;;46.35;15.93;;;;;;;10.72;68.68;101847.41;1851857;76;21022;-59
2023/01/04 09:02:03;;;;;;;37.67;14.13;;;;;;;10.60;68.93;101832.76;1851824;77;21078;-58
2023/01/04 09:04:32;;;;;;;33.58;13.48;;;;;;;10.53;69.18;101830.27;1851597;77;21050;-58
2023/01/04 09:07:00;;;;;;;34.27;13.90;;;;;;;10.42;69.56;101832.69;1851507;76;21099;-58
2023/01/04 09:09:29;;;;;;;30.25;12.58;;;;;;;10.33;69.97;101832.88;1851863;76;21019;-59
2023/01/04 09:11:58;;;;;;;36.33;13.98;;;;;;;10.29;70.17;101835.13;1860991;76;21042;-57
2023/01/04 09:14:27;;;;;;;31.12;12.40;;;;;;;10.32;70.21;101827.19;1851764;77;21125;-57
2023/01/04 09:16:55;;;;;;;30.00;13.60;;;;;;;10.34;70.37;101822.75;1850804;76;21058;-55
2023/01/04 09:19:24;;;;;;;31.45;12.95;;;;;;;10.35;70.66;101823.64;1851720;77;21113;-57
2023/01/04 09:21:53;;;;;;;32.17;13.30;;;;;;;10.39;70.67;101826.16;1850324;77;21043;-58
2023/01/04 09:24:24;;;;;;;30.50;12.07;;;;;;;10.50;70.62;101820.67;1852330;76;21196;-59
2023/01/04 09:26:53;;;;;;;28.50;11.30;;;;;;;10.55;70.40;101831.98;1855204;76;21113;-59
2023/01/04 09:29:23;;;;;;;33.98;13.13;;;;;;;10.50;70.36;101829.89;1850287;76;21117;-61
2023/01/04 09:31:52;;;;;;;28.30;11.90;;;;;;;10.42;70.37;101831.38;1849745;77;21188;-59
2023/01/04 09:34:21;;;;;;;39.75;12.58;;;;;;;10.28;70.64;101833.38;1849103;77;21031;-59
2023/01/04 09:36:51;;;;;;;31.20;13.15;;;;;;;10.21;70.81;101833.09;1848952;77;21106;-59
2023/01/04 09:39:20;;;;;;;29.50;12.93;;;;;;;10.16;70.98;101840.20;1860939;76;21117;-58
2023/01/04 09:42:06;;;;;;;28.62;12.70;;;;;;;10.13;71.05;101836.33;1882346;76;21035;-58
2023/01/04 09:44:52;;;;;;;29.85;13.18;;;;;;;10.09;70.95;101831.58;1881576;76;21525;-59
2023/01/04 09:47:41;;;;;;;35.15;12.95;;;;;;;10.01;71.05;101821.20;1873857;76;21082;-57
2023/01/04 09:50:31;;;;;;;30.08;11.70;;;;;;;9.99;71.01;101830.86;1842645;78;21051;-58
2023/01/04 09:53:11;;;;;;;32.55;12.28;;;;;;;9.99;70.81;101826.06;1823704;78;21597;-57
2023/01/04 09:55:52;;;;;;;26.60;10.75;;;;;;;9.91;70.88;101830.61;1842620;78;21051;-58
2023/01/04 09:58:36;;;;;;;29.55;12.13;;;;;;;9.81;71.08;101829.89;1842614;78;21635;-58
2023/01/04 10:01:28;;;;;;;33.80;13.48;;;;;;;9.75;71.09;101831.34;1811982;79;21505;-57
2023/01/04 10:04:05;;;;;;;31.25;13.28;;;;;;;9.58;71.46;101827.23;1838434;77;21521;-58
2023/01/04 10:06:36;;;;;;;32.93;13.13;;;;;;;9.50;71.71;101822.58;1790005;77;21607;-58
2023/01/04 10:09:08;;;;;;;36.50;13.95;;;;;;;9.55;71.86;101820.70;1842477;78;21160;-59
2023/01/04 10:12:01;;;;;;;29.32;12.65;;;;;;;9.62;71.83;101819.70;1842612;77;21051;-56
2023/01/04 10:14:50;;;;;;;33.38;14.03;;;;;;;9.65;71.69;101822.30;1842699;77;21043;-57
2023/01/04 10:17:30;;;;;;;36.88;14.28;;;;;;;9.70;71.52;101821.34;1843728;76;21989;-58
2023/01/04 10:20:19;;;;;;;35.00;13.45;;;;;;;9.68;71.48;101813.92;1832144;76;21130;-57
2023/01/04 10:22:59;;;;;;;33.75;12.95;;;;;;;9.71;71.51;101812.56;1842566;77;21125;-57
2023/01/04 10:25:34;;;;;;;43.73;15.45;;;;;;;9.68;71.49;101813.92;1842095;77;21172;-58
2023/01/04 10:28:24;;;;;;;36.08;14.47;;;;;;;9.64;71.51;101809.17;1805616;78;21148;-58
2023/01/04 10:31:06;;;;;;;37.13;14.58;;;;;;;9.59;71.66;101812.32;1812227;79;21157;-56
2023/01/04 10:33:49;;;;;;;36.00;14.13;;;;;;;9.51;71.69;101813.77;1811001;79;21130;-58
2023/01/04 10:36:24;;;;;;;44.23;16.40;;;;;;;9.34;72.23;101817.16;1812318;78;21235;-54
2023/01/04 10:39:08;;;;;;;41.37;14.38;;;;;;;9.24;72.37;101819.05;1812002;78;21228;-59
2023/01/04 10:41:41;;;;;;;36.73;13.83;;;;;;;9.18;72.36;101820.02;1810231;79;21603;-58
2023/01/04 10:44:24;;;;;;;49.88;15.88;;;;;;;9.11;72.59;101818.41;1810900;79;21134;-59
2023/01/04 10:47:20;;;;;;;39.83;13.98;;;;;;;9.01;72.61;101816.80;1825418;76;21639;-60
2023/01/04 10:49:53;;;;;;;43.33;14.15;;;;;;;8.92;72.84;101820.42;1834969;77;21565;-59
2023/01/04 10:52:29;;;;;;;41.45;14.55;;;;;;;8.88;72.95;101809.54;1840364;78;21182;-58
2023/01/04 10:55:07;;;;;;;35.03;13.25;;;;;;;8.91;72.84;101821.75;1840697;76;21198;-57
2023/01/04 10:57:54;;;;;;;36.93;12.63;;;;;;;8.88;72.77;101818.28;1841093;78;21665;-57
2023/01/04 11:00:28;;;;;;;34.73;13.35;;;;;;;8.89;72.72;101825.28;1836109;77;21134;-59
2023/01/04 11:03:18;;;;;;;37.00;12.60;;;;;;;8.88;72.72;101827.47;1841396;77;21031;-58
2023/01/04 11:06:00;;;;;;;37.00;11.85;;;;;;;8.82;72.95;101830.20;1841119;77;21031;-57
2023/01/04 11:08:32;;;;;;;29.18;11.75;;;;;;;8.81;72.90;101836.33;1841180;77;21130;-57
2023/01/04 11:11:12;;;;;;;26.27;10.82;;;;;;;8.76;73.11;101834.23;1840842;77;21134;-58
2023/01/04 11:13:42;;;;;;;29.30;11.38;;;;;;;8.74;73.10;101833.36;1841104;78;21043;-51
2023/01/04 11:16:11;;;;;;;23.60;9.90;;;;;;;8.76;73.03;101828.98;1856014;76;21043;-52
2023/01/04 11:18:43;;;;;;;28.73;10.75;;;;;;;8.80;72.96;101834.61;1847551;76;21050;-53
2023/01/04 11:21:14;;;;;;;26.17;10.25;;;;;;;8.80;73.03;101826.73;1842990;77;21134;-51
2023/01/04 11:23:43;;;;;;;28.15;10.72;;;;;;;8.85;72.95;101827.54;1842834;78;21181;-52
2023/01/04 11:26:17;;;;;;;30.82;10.58;;;;;;;8.80;73.07;101825.42;1842497;78;21058;-54
2023/01/04 11:28:55;;;;;;;31.87;11.05;;;;;;;8.76;73.13;101819.80;1838306;78;21035;-50
2023/01/04 11:31:32;;;;;;;33.18;11.40;;;;;;;8.76;73.30;101822.42;1827912;78;21066;-49
2023/01/04 11:34:03;;;;;;;29.52;12.03;;;;;;;8.71;73.52;101825.55;1813124;79;21504;-50
2023/01/04 11:36:38;;;;;;;24.40;10.70;;;;;;;8.77;73.42;101827.22;1812350;79;21698;-49
2023/01/04 11:39:13;;;;;;;24.12;10.70;;;;;;;8.84;73.33;101826.24;1815133;78;21133;-53
2023/01/04 11:41:44;;;;;;;39.13;10.88;;;;;;;8.91;73.13;101820.44;1835584;78;21071;-52
2023/01/04 11:44:16;;;;;;;27.27;11.40;;;;;;;8.96;72.96;101822.55;1839300;77;21091;-56
2023/01/04 11:46:44;;;;;;;25.82;10.80;;;;;;;8.97;72.93;101824.30;1842649;77;21156;-57
2023/01/04 11:49:20;;;;;;;30.80;10.25;;;;;;;9.00;72.80;101824.23;1842787;78;21153;-56
2023/01/04 11:51:50;;;;;;;26.27;10.72;;;;;;;8.98;72.76;101825.60;1835293;78;21596;-57
2023/01/04 11:54:20;;;;;;;23.07;10.40;;;;;;;8.97;72.83;101822.99;1862290;76;21576;-56
2023/01/04 11:57:06;;;;;;;22.45;8.43;;;;;;;9.00;72.72;101827.75;1874471;76;21066;-57
2023/01/04 11:59:34;;;;;;;21.27;10.20;;;;;;;9.03;72.68;101826.83;1813292;79;21550;-58
2023/01/04 12:02:18;;;;;;;23.50;9.80;;;;;;;9.00;72.65;101829.07;1813218;78;21091;-57
2023/01/04 12:04:47;;;;;;;25.20;9.78;;;;;;;8.95;72.83;101827.41;1813561;78;21104;-56
2023/01/04 12:07:27;;;;;;;25.43;10.18;;;;;;;8.88;72.87;101828.78;1813281;79;21129;-57
2023/01/04 12:09:58;;;;;;;21.80;8.33;;;;;;;8.86;72.81;101830.57;1813007;78;21155;-57
2023/01/04 12:12:30;;;;;;;24.40;9.98;;;;;;;8.84;72.79;101832.36;1813226;78;21070;-56
2023/01/04 12:15:08;;;;;;;19.95;8.80;;;;;;;8.80;72.84;101826.73;1813155;78;21063;-57
2023/01/04 12:17:42;;;;;;;24.02;10.03;;;;;;;8.80;72.86;101831.13;1813375;79;21517;-58
2023/01/04 12:20:13;;;;;;;24.85;10.28;;;;;;;8.77;72.93;101836.41;1811209;79;21066;-59
2023/01/04 12:22:43;;;;;;;29.27;11.43;;;;;;;8.77;72.85;101845.59;1813268;79;21074;-58
2023/01/04 12:25:26;;;;;;;29.63;11.35;;;;;;;8.76;72.79;101842.53;1813103;79;21058;-58
2023/01/04 12:27:56;;;;;;;26.95;8.85;;;;;;;8.65;73.14;101841.36;1813270;79;21587;-58